createdAt,value
2023-07-24T00:00:11.139Z,3.40
2023-07-24T00:03:03.538Z,4.80
2023-07-24T00:05:36.675Z,3.30
2023-07-24T00:08:09.288Z,3.40
2023-07-24T00:10:41.462Z,3.30
2023-07-24T00:13:13.635Z,2.90
2023-07-24T00:15:46.005Z,3.90
2023-07-24T00:18:18.442Z,3.70
2023-07-24T00:20:50.862Z,3.60
2023-07-24T00:23:23.433Z,4.00
2023-07-24T00:25:56.143Z,4.10
2023-07-24T00:28:28.430Z,3.40
2023-07-24T00:31:01.151Z,3.60
2023-07-24T00:33:33.411Z,3.00
2023-07-24T00:36:06.880Z,3.90
2023-07-24T00:38:39.353Z,3.40
2023-07-24T00:41:11.831Z,2.90
2023-07-24T00:43:44.049Z,3.10
2023-07-24T00:46:17.189Z,3.00
2023-07-24T00:48:49.876Z,3.30
2023-07-24T00:51:22.266Z,3.10
2023-07-24T00:53:54.531Z,4.30
2023-07-24T00:56:27.543Z,3.90
2023-07-24T00:59:01.411Z,4.60
2023-07-24T01:01:33.934Z,6.10
2023-07-24T01:04:08.167Z,5.20
2023-07-24T01:06:40.558Z,4.40
2023-07-24T01:09:12.991Z,4.70
2023-07-24T01:11:49.309Z,5.50
2023-07-24T01:14:27.155Z,5.00
2023-07-24T01:17:01.227Z,4.60
2023-07-24T01:19:43.181Z,5.70
2023-07-24T01:22:23.833Z,4.50
2023-07-24T01:25:12.856Z,4.30
2023-07-24T01:27:48.811Z,4.30
2023-07-24T01:30:23.613Z,4.40
2023-07-24T01:32:55.993Z,5.70
2023-07-24T01:35:29.949Z,4.40
2023-07-24T01:38:03.988Z,4.50
2023-07-24T01:40:37.038Z,4.80
2023-07-24T01:43:09.448Z,5.40
2023-07-24T01:45:41.812Z,5.40
2023-07-24T01:48:14.304Z,4.90
2023-07-24T01:50:46.606Z,5.50
2023-07-24T01:53:18.842Z,5.80
2023-07-24T01:55:51.268Z,5.00
2023-07-24T01:58:23.928Z,4.70
2023-07-24T02:00:58.782Z,5.30
2023-07-24T02:03:31.315Z,5.40
2023-07-24T02:06:03.590Z,5.80
2023-07-24T02:08:35.942Z,5.50
2023-07-24T02:11:08.179Z,7.10
2023-07-24T02:13:40.637Z,5.90
2023-07-24T02:16:12.974Z,5.10
2023-07-24T02:18:46.598Z,6.10
2023-07-24T02:21:18.692Z,6.30
2023-07-24T02:23:51.145Z,5.10
2023-07-24T02:26:23.467Z,5.70
2023-07-24T02:28:56.286Z,5.70
2023-07-24T02:31:29.879Z,6.60
2023-07-24T02:34:02.080Z,7.80
2023-07-24T02:36:34.486Z,6.00
2023-07-24T02:39:06.677Z,6.50
2023-07-24T02:41:38.847Z,6.70
2023-07-24T02:44:11.180Z,6.30
2023-07-24T02:46:43.465Z,7.70
2023-07-24T02:49:15.706Z,5.60
2023-07-24T02:51:47.908Z,5.90
2023-07-24T02:54:19.938Z,5.40
2023-07-24T02:56:52.520Z,5.30
2023-07-24T02:59:24.904Z,5.20
2023-07-24T03:01:57.153Z,6.60
2023-07-24T03:04:29.321Z,5.80
2023-07-24T03:07:01.745Z,5.90
2023-07-24T03:09:34.039Z,5.20
2023-07-24T03:12:07.039Z,5.10
2023-07-24T03:14:39.310Z,6.10
2023-07-24T03:17:12.463Z,7.70
2023-07-24T03:19:45.224Z,7.70
2023-07-24T03:22:17.833Z,5.90
2023-07-24T03:24:50.145Z,5.10
2023-07-24T03:27:22.503Z,4.60
2023-07-24T03:29:54.742Z,5.00
2023-07-24T03:32:27.137Z,6.40
2023-07-24T03:34:59.552Z,5.10
2023-07-24T03:37:32.113Z,6.00
2023-07-24T03:40:04.659Z,6.00
2023-07-24T03:42:37.052Z,4.90
2023-07-24T03:45:11.583Z,4.80
2023-07-24T03:47:43.883Z,5.90
2023-07-24T03:50:16.192Z,5.70
2023-07-24T03:52:48.513Z,5.30
2023-07-24T03:55:21.173Z,5.90
2023-07-24T03:57:53.484Z,6.00
2023-07-24T04:00:25.799Z,5.50
2023-07-24T04:02:58.627Z,6.10
2023-07-24T04:05:31.209Z,5.40
2023-07-24T04:08:03.908Z,6.50
2023-07-24T04:10:36.758Z,4.60
2023-07-24T04:13:09.001Z,6.90
2023-07-24T04:15:41.852Z,6.60
2023-07-24T04:18:14.260Z,6.00
2023-07-24T04:20:46.563Z,7.50
2023-07-24T04:23:18.878Z,7.10
2023-07-24T04:25:53.165Z,7.60
2023-07-24T04:28:25.419Z,7.60
2023-07-24T04:30:57.657Z,6.20
2023-07-24T04:33:30.056Z,8.30
2023-07-24T04:36:03.691Z,6.60
2023-07-24T04:38:35.988Z,5.90
2023-07-24T04:41:08.256Z,5.70
2023-07-24T04:43:40.515Z,5.80
2023-07-24T04:46:12.708Z,5.70
2023-07-24T04:48:45.133Z,5.70
2023-07-24T04:51:17.262Z,6.20
2023-07-24T04:53:49.807Z,5.30
2023-07-24T04:56:22.021Z,6.00
2023-07-24T04:58:54.346Z,5.50
2023-07-24T05:01:26.722Z,5.50
2023-07-24T05:03:59.128Z,5.60
2023-07-24T05:06:31.877Z,4.00
2023-07-24T05:09:04.472Z,4.50
2023-07-24T05:11:36.860Z,6.50
2023-07-24T05:14:09.150Z,5.00
2023-07-24T05:16:41.299Z,4.80
2023-07-24T05:19:13.650Z,5.00
2023-07-24T05:21:45.910Z,4.40
2023-07-24T05:24:18.154Z,5.30
2023-07-24T05:26:50.544Z,4.20
2023-07-24T05:29:23.089Z,4.10
2023-07-24T05:31:55.264Z,6.60
2023-07-24T05:34:27.445Z,4.40
2023-07-24T05:36:59.813Z,3.70
2023-07-24T05:39:33.363Z,3.40
2023-07-24T05:42:06.221Z,4.80
2023-07-24T05:44:38.859Z,5.10
2023-07-24T05:47:11.116Z,3.90
2023-07-24T05:49:43.496Z,3.60
2023-07-24T05:52:15.796Z,7.10
2023-07-24T05:54:48.181Z,3.70
2023-07-24T05:57:20.498Z,3.60
2023-07-24T05:59:53.254Z,3.60
2023-07-24T06:02:25.748Z,4.00
2023-07-24T06:04:58.278Z,4.10
2023-07-24T06:07:30.720Z,4.30
2023-07-24T06:10:03.045Z,3.70
2023-07-24T06:12:35.379Z,4.20
2023-07-24T06:15:09.232Z,3.70
2023-07-24T06:17:41.609Z,3.50
2023-07-24T06:20:14.384Z,4.10
2023-07-24T06:22:47.396Z,3.00
2023-07-24T06:25:19.722Z,3.70
2023-07-24T06:27:51.920Z,2.70
2023-07-24T06:30:23.990Z,3.80
2023-07-24T06:32:56.388Z,2.80
2023-07-24T06:35:28.802Z,3.50
2023-07-24T06:38:01.313Z,2.90
2023-07-24T06:40:33.905Z,5.30
2023-07-24T06:43:06.213Z,3.50
2023-07-24T06:45:38.631Z,3.10
2023-07-24T06:48:10.997Z,3.00
2023-07-24T06:50:43.883Z,3.70
2023-07-24T06:53:16.238Z,3.30
2023-07-24T06:55:48.415Z,3.20
2023-07-24T06:58:20.588Z,3.40
2023-07-24T07:00:52.759Z,3.00
2023-07-24T07:03:25.134Z,3.60
2023-07-24T07:06:02.593Z,3.60
2023-07-24T07:08:35.221Z,2.90
2023-07-24T07:11:07.671Z,3.70
2023-07-24T07:13:39.859Z,2.70
2023-07-24T07:16:12.209Z,3.20
2023-07-24T07:18:44.417Z,4.50
2023-07-24T07:21:16.742Z,3.80
2023-07-24T07:23:49.097Z,3.70
2023-07-24T07:26:21.189Z,4.10
2023-07-24T07:28:53.653Z,4.20
2023-07-24T07:31:25.988Z,4.00
2023-07-24T07:33:58.448Z,3.60
2023-07-24T07:36:30.762Z,3.50
2023-07-24T07:39:03.478Z,3.50
2023-07-24T07:41:35.819Z,4.10
2023-07-24T07:44:08.108Z,3.50
2023-07-24T07:46:40.587Z,3.10
2023-07-24T07:49:13.078Z,3.30
2023-07-24T07:51:45.666Z,3.10
2023-07-24T07:54:17.913Z,3.10
2023-07-24T07:56:50.247Z,4.50
2023-07-24T07:59:22.988Z,4.10
2023-07-24T08:01:55.277Z,3.80
2023-07-24T08:04:27.490Z,4.20
2023-07-24T08:06:59.897Z,4.70
2023-07-24T08:09:33.837Z,4.40
2023-07-24T08:12:08.816Z,4.60
2023-07-24T08:14:41.517Z,4.80
2023-07-24T08:17:13.934Z,4.10
2023-07-24T08:19:46.369Z,4.90
2023-07-24T08:22:20.728Z,3.10
2023-07-24T08:24:55.931Z,5.30
2023-07-24T08:27:29.641Z,4.40
2023-07-24T08:30:01.932Z,5.00
2023-07-24T08:32:34.302Z,5.40
2023-07-24T08:35:09.106Z,5.70
2023-07-24T08:37:44.850Z,5.40
2023-07-24T08:40:19.712Z,5.60
2023-07-24T08:42:52.953Z,5.80
2023-07-24T08:45:26.287Z,4.70
2023-07-24T08:48:01.253Z,5.20
2023-07-24T08:50:33.990Z,4.60
2023-07-24T08:53:08.183Z,4.00
2023-07-24T08:55:40.845Z,4.20
2023-07-24T08:58:13.332Z,4.60
2023-07-24T09:00:47.839Z,4.40
2023-07-24T09:03:20.947Z,4.30
2023-07-24T09:05:53.329Z,4.70
2023-07-24T09:08:34.817Z,5.00
2023-07-24T09:11:08.436Z,5.10
2023-07-24T09:13:44.235Z,4.40
2023-07-24T09:16:27.472Z,5.00
2023-07-24T09:19:11.022Z,4.80
2023-07-24T09:21:45.620Z,5.20
2023-07-24T09:24:18.901Z,5.10
2023-07-24T09:26:58.811Z,5.20
2023-07-24T09:29:36.501Z,4.50
2023-07-24T09:32:20.434Z,5.70
2023-07-24T09:34:55.222Z,4.40
2023-07-24T09:37:29.490Z,4.10
2023-07-24T09:40:01.725Z,4.90
2023-07-24T09:42:38.926Z,4.40
2023-07-24T09:45:17.343Z,5.10
2023-07-24T09:47:57.310Z,5.20
2023-07-24T09:50:32.892Z,4.90
2023-07-24T09:53:06.712Z,4.80
2023-07-24T09:55:45.015Z,4.20
2023-07-24T09:58:18.162Z,4.30
2023-07-24T10:00:51.396Z,4.90
2023-07-24T10:03:24.242Z,4.40
2023-07-24T10:05:57.110Z,4.50
2023-07-24T10:08:29.725Z,4.30
2023-07-24T10:11:02.466Z,4.40
2023-07-24T10:13:37.837Z,4.40
2023-07-24T10:16:10.978Z,4.90
2023-07-24T10:18:48.542Z,3.90
2023-07-24T10:21:28.820Z,4.70
2023-07-24T10:24:03.825Z,4.60
2023-07-24T10:26:38.911Z,5.00
2023-07-24T10:29:13.593Z,3.80
2023-07-24T10:31:57.085Z,4.30
2023-07-24T10:34:40.467Z,3.80
2023-07-24T10:37:12.961Z,4.60
2023-07-24T10:39:47.148Z,4.60
2023-07-24T10:42:26.535Z,5.50
2023-07-24T10:45:08.822Z,4.50
2023-07-24T10:47:41.397Z,4.50
2023-07-24T10:50:13.830Z,4.70
2023-07-24T10:52:46.335Z,5.70
2023-07-24T10:55:19.975Z,5.40
2023-07-24T10:57:54.838Z,4.90
2023-07-24T11:00:27.758Z,5.30
2023-07-24T11:03:00.235Z,4.40
2023-07-24T11:05:33.814Z,4.00
2023-07-24T11:08:16.200Z,5.90
2023-07-24T11:10:52.686Z,4.50
2023-07-24T11:13:26.448Z,4.40
2023-07-24T11:15:59.098Z,5.60
2023-07-24T11:18:44.450Z,5.20
2023-07-24T11:21:24.646Z,4.80
2023-07-24T11:23:58.170Z,5.30
2023-07-24T11:26:30.758Z,5.30
2023-07-24T11:29:02.855Z,5.40
2023-07-24T11:31:41.999Z,5.50
2023-07-24T11:34:14.905Z,5.30
2023-07-24T11:36:47.430Z,5.80
2023-07-24T11:39:26.645Z,5.00
2023-07-24T11:41:59.131Z,4.70
2023-07-24T11:44:31.898Z,5.10
2023-07-24T11:47:08.430Z,5.00
2023-07-24T11:49:46.662Z,5.60
2023-07-24T11:52:19.045Z,5.40
2023-07-24T11:55:02.134Z,6.10
2023-07-24T11:57:34.527Z,6.00
2023-07-24T12:00:09.544Z,5.70
2023-07-24T12:02:42.121Z,5.70
2023-07-24T12:05:15.238Z,5.60
2023-07-24T12:07:48.305Z,7.10
2023-07-24T12:10:30.076Z,6.70
2023-07-24T12:13:03.758Z,7.10
2023-07-24T12:15:36.713Z,6.90
2023-07-24T12:18:09.609Z,6.00
2023-07-24T12:20:42.244Z,6.90
2023-07-24T12:23:14.587Z,7.90
2023-07-24T12:25:46.874Z,7.00
2023-07-24T12:28:19.065Z,6.30
2023-07-24T12:30:51.319Z,7.00
2023-07-24T12:33:24.755Z,6.60
2023-07-24T12:35:57.359Z,6.90
2023-07-24T12:38:29.672Z,7.70
2023-07-24T12:41:01.851Z,6.90
2023-07-24T12:43:34.187Z,7.00
2023-07-24T12:46:06.629Z,7.50
2023-07-24T12:48:38.995Z,7.40
2023-07-24T12:51:11.543Z,8.20
2023-07-24T12:53:56.570Z,8.40
2023-07-24T12:56:36.299Z,8.00
2023-07-24T12:59:08.727Z,7.90
2023-07-24T13:01:41.071Z,9.00
2023-07-24T13:04:13.476Z,8.40
2023-07-24T13:06:45.987Z,8.60
2023-07-24T13:09:18.474Z,7.20
2023-07-24T13:11:52.826Z,7.80
2023-07-24T13:14:25.331Z,8.60
2023-07-24T13:16:57.986Z,8.70
2023-07-24T13:19:30.316Z,7.20
2023-07-24T13:22:02.517Z,8.10
2023-07-24T13:24:34.671Z,8.50
2023-07-24T13:27:07.941Z,7.80
2023-07-24T13:29:40.170Z,7.70
2023-07-24T13:32:13.088Z,8.80
2023-07-24T13:34:45.885Z,6.70
2023-07-24T13:37:18.088Z,8.20
2023-07-24T13:39:50.609Z,8.70
2023-07-24T13:42:23.131Z,9.50
2023-07-24T13:44:55.465Z,8.50
2023-07-24T13:47:27.842Z,9.90
2023-07-24T13:50:01.286Z,10.20
2023-07-24T13:52:33.754Z,8.60
2023-07-24T13:55:06.622Z,8.80
2023-07-24T13:57:38.862Z,9.60
2023-07-24T14:00:13.001Z,8.10
2023-07-24T14:02:45.509Z,9.60
2023-07-24T14:05:18.104Z,9.60
2023-07-24T14:07:50.389Z,9.00
2023-07-24T14:10:22.716Z,10.60
2023-07-24T14:12:55.085Z,9.40
2023-07-24T14:15:27.517Z,9.80
2023-07-24T14:17:59.829Z,9.10
2023-07-24T14:20:32.079Z,9.20
2023-07-24T14:23:04.321Z,9.20
2023-07-24T14:25:36.884Z,8.40
2023-07-24T14:28:09.496Z,8.20
2023-07-24T14:30:41.755Z,9.10
2023-07-24T14:33:14.099Z,12.50
2023-07-24T14:35:46.563Z,9.90
2023-07-24T14:38:18.887Z,9.70
2023-07-24T14:40:51.216Z,10.40
2023-07-24T14:43:23.470Z,8.30
2023-07-24T14:45:55.671Z,9.70
2023-07-24T14:48:28.056Z,9.30
2023-07-24T14:51:00.485Z,8.80
2023-07-24T14:53:32.869Z,9.20
2023-07-24T14:56:05.333Z,8.80
2023-07-24T14:58:37.789Z,9.90
2023-07-24T15:01:10.625Z,9.10
2023-07-24T15:03:43.303Z,9.70
2023-07-24T15:06:15.591Z,8.20
2023-07-24T15:08:47.948Z,9.00
2023-07-24T15:11:20.384Z,8.50
2023-07-24T15:13:52.591Z,7.70
2023-07-24T15:16:24.870Z,9.50
2023-07-24T15:18:57.176Z,8.60
2023-07-24T15:21:30.050Z,9.40
2023-07-24T15:24:02.533Z,9.50
2023-07-24T15:26:34.746Z,9.70
2023-07-24T15:29:06.988Z,8.50
2023-07-24T15:31:40.984Z,9.60
2023-07-24T15:34:13.478Z,9.30
2023-07-24T15:36:45.644Z,8.70
2023-07-24T15:39:17.909Z,10.00
2023-07-24T15:41:50.232Z,8.50
2023-07-24T15:44:22.424Z,8.50
2023-07-24T15:46:54.764Z,8.60
2023-07-24T15:49:27.192Z,10.80
2023-07-24T15:51:59.416Z,9.30
2023-07-24T15:54:31.604Z,8.80
2023-07-24T15:57:04.086Z,9.00
2023-07-24T15:59:36.443Z,8.90
2023-07-24T16:02:09.302Z,10.80
2023-07-24T16:04:41.888Z,14.10
2023-07-24T16:07:14.032Z,11.00
2023-07-24T16:09:46.515Z,12.20
2023-07-24T16:12:18.780Z,11.10
2023-07-24T16:14:51.537Z,11.40
2023-07-24T16:17:23.915Z,13.90
2023-07-24T16:19:56.203Z,12.30
2023-07-24T16:22:28.495Z,11.50
2023-07-24T16:25:00.754Z,9.20
2023-07-24T16:27:33.105Z,9.70
2023-07-24T16:30:05.506Z,11.40
2023-07-24T16:32:37.772Z,12.70
2023-07-24T16:35:11.467Z,12.70
2023-07-24T16:37:43.693Z,12.70
2023-07-24T16:40:16.755Z,12.70
2023-07-24T16:42:51.650Z,11.80
2023-07-24T16:45:36.354Z,13.80
2023-07-24T16:48:09.881Z,14.50
2023-07-24T16:50:42.413Z,14.00
2023-07-24T16:53:14.599Z,12.40
2023-07-24T16:55:47.027Z,13.80
2023-07-24T16:58:19.379Z,15.10
2023-07-24T17:00:51.692Z,14.40
2023-07-24T17:03:23.931Z,12.70
2023-07-24T17:05:56.339Z,12.70
2023-07-24T17:08:28.685Z,15.20
2023-07-24T17:11:01.157Z,14.70
2023-07-24T17:13:34.027Z,15.60
2023-07-24T17:16:06.896Z,13.00
2023-07-24T17:18:39.471Z,14.90
2023-07-24T17:21:11.748Z,14.90
2023-07-24T17:23:44.192Z,14.60
2023-07-24T17:26:16.530Z,14.80
2023-07-24T17:28:49.863Z,14.10
2023-07-24T17:31:22.117Z,15.90
2023-07-24T17:33:54.468Z,13.70
2023-07-24T17:36:27.405Z,15.70
2023-07-24T17:39:00.320Z,15.40
2023-07-24T17:41:33.610Z,16.90
2023-07-24T17:44:07.066Z,15.60
2023-07-24T17:46:39.565Z,14.70
2023-07-24T17:49:12.041Z,13.70
2023-07-24T17:51:44.405Z,12.20
2023-07-24T17:54:17.079Z,13.50
2023-07-24T17:56:49.390Z,12.50
2023-07-24T17:59:21.687Z,11.90
2023-07-24T18:01:54.011Z,14.00
2023-07-24T18:04:26.412Z,11.30
2023-07-24T18:06:59.678Z,12.60
2023-07-24T18:09:31.926Z,13.60
2023-07-24T18:12:04.322Z,14.10
2023-07-24T18:14:36.680Z,13.10
2023-07-24T18:17:09.382Z,13.80
2023-07-24T18:19:41.703Z,13.60
2023-07-24T18:22:14.157Z,15.50
2023-07-24T18:24:46.563Z,14.90
2023-07-24T18:27:18.827Z,12.00
2023-07-24T18:29:51.192Z,11.70
2023-07-24T18:32:24.824Z,13.10
2023-07-24T18:34:57.223Z,14.40
2023-07-24T18:37:29.501Z,11.70
2023-07-24T18:40:01.860Z,14.30
2023-07-24T18:42:34.342Z,12.70
2023-07-24T18:45:07.706Z,12.30
2023-07-24T18:47:40.552Z,13.00
2023-07-24T18:50:13.781Z,12.70
2023-07-24T18:52:46.091Z,11.50
2023-07-24T18:55:18.569Z,13.20
2023-07-24T18:57:50.927Z,12.40
2023-07-24T19:00:23.403Z,14.00
2023-07-24T19:02:55.755Z,13.60
2023-07-24T19:05:28.297Z,12.40
2023-07-24T19:08:00.489Z,12.30
2023-07-24T19:10:32.868Z,12.90
2023-07-24T19:13:05.061Z,12.80
2023-07-24T19:15:37.424Z,13.50
2023-07-24T19:18:09.747Z,10.20
2023-07-24T19:20:41.943Z,11.80
2023-07-24T19:23:14.233Z,12.20
2023-07-24T19:25:46.375Z,12.60
2023-07-24T19:28:18.573Z,12.50
2023-07-24T19:30:56.306Z,11.80
2023-07-24T19:33:28.865Z,13.10
2023-07-24T19:36:03.050Z,12.40
2023-07-24T19:38:35.736Z,12.00
2023-07-24T19:41:08.085Z,10.60
2023-07-24T19:43:40.310Z,11.40
2023-07-24T19:46:13.132Z,12.50
2023-07-24T19:48:45.758Z,13.20
2023-07-24T19:51:18.098Z,13.90
2023-07-24T19:53:50.278Z,15.10
2023-07-24T19:56:22.526Z,14.30
2023-07-24T19:58:54.905Z,13.70
2023-07-24T20:01:28.609Z,11.70
2023-07-24T20:04:01.454Z,15.00
2023-07-24T20:06:34.410Z,11.60
2023-07-24T20:09:08.589Z,13.50
2023-07-24T20:11:40.926Z,14.10
2023-07-24T20:14:13.814Z,11.20
2023-07-24T20:16:46.289Z,12.20
2023-07-24T20:19:18.718Z,11.90
2023-07-24T20:21:51.121Z,12.40
2023-07-24T20:24:23.367Z,12.80
2023-07-24T20:26:55.679Z,12.70
2023-07-24T20:29:27.775Z,11.10
2023-07-24T20:32:00.164Z,12.40
2023-07-24T20:34:32.329Z,12.40
2023-07-24T20:37:04.749Z,11.30
2023-07-24T20:39:37.304Z,11.60
2023-07-24T20:42:10.053Z,12.70
2023-07-24T20:44:45.138Z,13.70
2023-07-24T20:47:23.911Z,10.40
2023-07-24T20:49:56.377Z,13.20
2023-07-24T20:52:28.643Z,12.50
2023-07-24T20:55:00.935Z,11.50
2023-07-24T20:57:33.345Z,12.50
2023-07-24T21:00:07.004Z,11.60
2023-07-24T21:02:40.058Z,11.80
2023-07-24T21:05:13.382Z,13.20
2023-07-24T21:07:45.847Z,14.00
2023-07-24T21:10:18.270Z,13.40
2023-07-24T21:12:52.609Z,13.90
2023-07-24T21:15:24.929Z,13.20
2023-07-24T21:17:57.116Z,12.60
2023-07-24T21:20:29.442Z,14.90
2023-07-24T21:23:01.767Z,12.00
2023-07-24T21:25:33.896Z,13.90
2023-07-24T21:28:06.619Z,15.20
2023-07-24T21:30:38.842Z,14.90
2023-07-24T21:33:10.978Z,14.10
2023-07-24T21:35:43.215Z,16.40
2023-07-24T21:38:15.904Z,13.30
2023-07-24T21:40:48.303Z,12.70
2023-07-24T21:43:20.762Z,12.90
2023-07-24T21:45:54.699Z,13.40
2023-07-24T21:48:27.075Z,13.50
2023-07-24T21:50:59.470Z,14.60
2023-07-24T21:53:31.872Z,14.20
2023-07-24T21:56:05.174Z,14.20
2023-07-24T21:58:37.263Z,12.40
2023-07-24T22:01:09.555Z,13.80
2023-07-24T22:03:41.772Z,12.70
2023-07-24T22:06:13.954Z,13.80
2023-07-24T22:08:46.485Z,11.30
2023-07-24T22:11:19.130Z,12.90
2023-07-24T22:13:51.379Z,14.30
2023-07-24T22:16:23.652Z,12.70
2023-07-24T22:18:55.879Z,14.00
2023-07-24T22:21:28.192Z,14.20
2023-07-24T22:24:00.638Z,11.70
2023-07-24T22:26:33.674Z,11.10
2023-07-24T22:29:05.906Z,12.50
2023-07-24T22:31:38.203Z,11.40
2023-07-24T22:34:11.553Z,13.40
2023-07-24T22:36:44.885Z,12.50
2023-07-24T22:39:17.431Z,12.30
2023-07-24T22:41:49.646Z,11.50
2023-07-24T22:44:21.892Z,13.70
2023-07-24T22:46:54.312Z,13.00
2023-07-24T22:49:26.905Z,11.90
2023-07-24T22:51:59.495Z,12.50
2023-07-24T22:54:31.829Z,12.00
2023-07-24T22:57:04.243Z,13.40
2023-07-24T22:59:36.684Z,11.40
2023-07-24T23:02:09.164Z,12.40
2023-07-24T23:04:41.382Z,12.00
2023-07-24T23:07:13.688Z,12.90
2023-07-24T23:09:46.075Z,12.50
2023-07-24T23:12:18.469Z,11.30
2023-07-24T23:14:50.884Z,11.50
2023-07-24T23:17:23.295Z,11.10
2023-07-24T23:19:55.794Z,12.50
2023-07-24T23:22:28.083Z,13.20
2023-07-24T23:25:00.592Z,11.70
2023-07-24T23:27:32.907Z,16.30
2023-07-24T23:30:06.084Z,12.00
2023-07-24T23:32:38.310Z,11.60
2023-07-24T23:35:11.528Z,11.70
2023-07-24T23:37:43.800Z,13.80
2023-07-24T23:40:16.587Z,11.80
2023-07-24T23:42:50.197Z,14.30
2023-07-24T23:45:22.610Z,12.70
2023-07-24T23:47:54.873Z,12.20
2023-07-24T23:50:27.178Z,12.70
2023-07-24T23:52:59.955Z,13.40
2023-07-24T23:55:34.840Z,11.40
2023-07-24T23:58:06.942Z,13.50
